الصفحة الرئيسية
METAR-TAF:

METAR-TAF

مطار :

مطار دوشانبي الدولي

دوشنبه, طاجيكستان

دائرة عرض: 38-33N, خط طول: 068-47E, ارتفاع: 803 متر

مراقبة الطقس الحالي

تاريخ ووقت الإصدار 12ساعات و 27 دقيقة قبل الساعة 05:00UTC
ريح 4 عقدةمن اتجاهات متغيرة
درجة الحرارة 26°درجة مئوية
الرطوبة 39%
ضغط 1015 hPa
الرؤية: 2200 متر
غيوم متفرقة على ارتفاع 1700 قدم
ملبد بالغيوم على ارتفاع 2000 قدم
العجاج

METAR: UTDD 210500Z VRB02MPS 2200 HZ SCT017 OVC020 26/11 Q1015 R09/D NOSIG RMK QFE693/0924

زمن: 22:27 (17:27 UTC)

توقعات

تاريخ ووقت الإصدار 14ساعات و 27 دقيقة قبل الساعة 03:00UTC
التوقعات صالحة من21 الساعة 04 UTC إلى 21 الساعة 16 UTC
ريح 10 عقدة من الغرب
الرؤية: 2300 متر
غيوم قليلة على ارتفاع 6000 قدم, مزنة ركامية.
غيوم متفرقة على ارتفاع 10000 قدم
العجاج
مؤقت
من 21 الساعة 04 UTC إلى 21 الساعة 16 UTC
ريح 16 عقدة من الغرب تتزايد حتى 25 عقدة
الرؤية: 1000 متر
العجاج
نظرية الاحتمالات 40% :
مؤقت
من 21 الساعة 04 UTC إلى 21 الساعة 16 UTC
عاصفة رعدية

TAF: UTDD 210300Z 2104/2116 26005MPS 2300 HZ FEW060CB SCT100 TEMPO 2104/2116 28008G13MPS 1000 HZ PROB40 TEMPO 2104/2116 TS

أرصاد الطقس والتوقعات من أكثر من 4000 مطار (تقارير الطقس للمطار METAR والتنبؤ بالطقس بالمطارTAF).

المحطات المتاحة هي النقط الصفراء والحمراء على الخريطة.

حرك المؤشر فوق النقطة لمعرفة اسم المحطة.

ثم انقر لمعرفة أرصاد وتوقعات الطقس.

لتغيير الخارطة: اضغط على الأزرار الخضراء مع رمز الصليب الأسود للتكبير. على الزر الأخضر مع شرطة للتصغير، أو على الأسهم الخضراء للخرائط المجاورة.


METAR-TAF: